createdAt,value
2019-01-02T00:02:11.113Z,4.80
2019-01-02T00:07:14.546Z,4.77
2019-01-02T00:12:17.992Z,4.84
2019-01-02T00:17:21.429Z,4.75
2019-01-02T00:22:24.877Z,4.79
2019-01-02T00:27:28.399Z,4.77
2019-01-02T00:32:31.845Z,4.78
2019-01-02T00:37:35.279Z,4.78
2019-01-02T00:42:38.723Z,4.78
2019-01-02T00:47:42.172Z,4.80
2019-01-02T00:52:45.590Z,4.81
2019-01-02T00:57:49.015Z,4.82
2019-01-02T01:02:52.457Z,4.67
2019-01-02T01:07:55.885Z,4.48
2019-01-02T01:12:59.314Z,4.32
2019-01-02T01:18:02.755Z,4.40
2019-01-02T01:23:06.442Z,4.44
2019-01-02T01:28:10.246Z,4.51
2019-01-02T01:33:13.660Z,4.53
2019-01-02T01:38:17.096Z,4.57
2019-01-02T01:43:20.905Z,4.62
2019-01-02T01:48:24.332Z,4.71
2019-01-02T01:53:27.769Z,4.70
2019-01-02T01:58:31.197Z,4.66
2019-01-02T02:03:35.095Z,4.71
2019-01-02T02:08:38.533Z,4.73
2019-01-02T02:13:41.985Z,4.70
2019-01-02T02:18:45.776Z,4.69
2019-01-02T02:23:49.199Z,4.66
2019-01-02T02:28:52.628Z,4.72
2019-01-02T02:33:56.079Z,4.76
2019-01-02T02:38:59.975Z,4.77
2019-01-02T02:44:03.783Z,4.75
2019-01-02T02:49:07.670Z,4.67
2019-01-02T02:54:11.486Z,4.69
2019-01-02T02:59:15.317Z,4.68
2019-01-02T03:04:19.118Z,4.73
2019-01-02T03:09:22.925Z,4.64
2019-01-02T03:14:26.409Z,4.71
2019-01-02T03:19:30.221Z,4.68
2019-01-02T03:24:34.020Z,4.66
2019-01-02T03:29:37.815Z,4.77
2019-01-02T03:34:41.557Z,4.82
2019-01-02T03:39:44.975Z,4.91
2019-01-02T03:44:48.386Z,4.95
2019-01-02T03:49:51.825Z,5.02
2019-01-02T03:54:55.266Z,5.12
2019-01-02T03:59:58.703Z,5.23
2019-01-02T04:05:02.134Z,5.23
2019-01-02T04:10:08.603Z,5.29
2019-01-02T04:15:12.038Z,5.26
2019-01-02T04:20:15.470Z,5.02
2019-01-02T04:25:18.907Z,4.81
2019-01-02T04:30:22.369Z,4.44
2019-01-02T04:35:25.792Z,4.16
2019-01-02T04:40:29.225Z,4.13
2019-01-02T04:45:32.663Z,4.31
2019-01-02T04:50:36.092Z,4.24
2019-01-02T04:55:39.536Z,4.35
2019-01-02T05:00:42.967Z,4.42
2019-01-02T05:05:46.421Z,4.46
2019-01-02T05:10:49.872Z,4.45
2019-01-02T05:15:53.274Z,4.52
2019-01-02T05:20:56.716Z,4.66
2019-01-02T05:26:00.156Z,4.66
2019-01-02T05:31:03.600Z,4.75
2019-01-02T05:36:07.033Z,4.85
2019-01-02T05:41:10.471Z,4.87
2019-01-02T05:46:13.900Z,4.86
2019-01-02T05:51:17.321Z,4.95
2019-01-02T05:56:20.932Z,4.86
2019-01-02T06:01:24.392Z,4.94
2019-01-02T06:06:27.793Z,5.09
2019-01-02T06:11:31.230Z,5.01
2019-01-02T06:16:34.686Z,4.96
2019-01-02T06:21:38.111Z,4.97
2019-01-02T06:26:41.539Z,4.97
2019-01-02T06:31:44.966Z,4.90
2019-01-02T06:36:48.388Z,4.89
2019-01-02T06:41:51.870Z,5.01
2019-01-02T06:46:55.326Z,5.02
2019-01-02T06:51:58.770Z,4.94
2019-01-02T06:57:02.184Z,4.97
2019-01-02T07:02:05.617Z,4.94
2019-01-02T07:07:09.080Z,5.01
2019-01-02T07:12:12.513Z,5.02
2019-01-02T07:17:15.934Z,5.08
2019-01-02T07:22:19.357Z,5.12
2019-01-02T07:27:22.785Z,5.14
2019-01-02T07:32:26.233Z,5.19
2019-01-02T07:37:49.539Z,5.20
2019-01-02T07:43:05.229Z,5.23
2019-01-02T07:48:31.026Z,5.23
2019-01-02T07:53:58.824Z,5.14
2019-01-02T07:59:17.464Z,5.08
2019-01-02T08:04:36.172Z,5.08
2019-01-02T08:09:45.237Z,5.00
2019-01-02T08:14:51.705Z,4.91
2019-01-02T08:20:22.143Z,4.88
2019-01-02T08:25:28.617Z,4.76
2019-01-02T08:30:53.280Z,4.72
2019-01-02T08:36:02.522Z,4.68
2019-01-02T08:41:11.769Z,4.69
2019-01-02T08:46:39.146Z,4.74
2019-01-02T08:51:48.362Z,4.73
2019-01-02T08:57:09.830Z,4.73
2019-01-02T09:02:31.305Z,4.77
2019-01-02T09:07:43.974Z,4.75
2019-01-02T09:13:07.116Z,4.75
2019-01-02T09:18:41.022Z,4.83
2019-01-02T09:24:02.711Z,4.88
2019-01-02T09:29:23.788Z,5.00
2019-01-02T09:34:54.084Z,5.13
2019-01-02T09:40:03.508Z,5.25
2019-01-02T09:45:43.703Z,5.33
2019-01-02T09:51:21.950Z,5.38
2019-01-02T09:56:33.955Z,5.47
2019-01-02T10:01:49.398Z,5.54
2019-01-02T10:06:55.860Z,5.58
2019-01-02T10:12:29.149Z,5.73
2019-01-02T10:17:38.566Z,5.86
2019-01-02T10:23:04.679Z,5.82
2019-01-02T10:28:20.053Z,5.88
2019-01-02T10:33:41.403Z,5.86
2019-01-02T10:38:50.382Z,5.75
2019-01-02T10:44:14.853Z,6.08
2019-01-02T10:49:21.364Z,6.03
2019-01-02T10:54:45.506Z,5.97
2019-01-02T11:00:16.293Z,6.18
2019-01-02T11:05:31.682Z,6.13
2019-01-02T11:10:46.840Z,6.46
2019-01-02T11:15:53.328Z,6.56
2019-01-02T11:21:17.902Z,6.54
2019-01-02T11:26:52.969Z,6.63
2019-01-02T11:32:32.458Z,6.46
2019-01-02T11:37:42.247Z,6.51
2019-01-02T11:42:57.580Z,6.48
2019-01-02T11:48:00.989Z,6.34
2019-01-02T11:53:04.431Z,6.02
2019-01-02T11:58:07.855Z,6.01
2019-01-02T12:03:11.317Z,6.04
2019-01-02T18:52:12.455Z,1.28
2019-01-02T18:57:21.687Z,1.26
2019-01-02T19:02:32.667Z,1.08
2019-01-02T19:07:58.320Z,0.94
2019-01-02T19:13:03.540Z,1.13
2019-01-02T19:18:10.287Z,1.19
2019-01-02T19:23:15.673Z,1.27
2019-01-02T19:28:19.150Z,1.33
2019-01-02T19:33:22.613Z,1.43
2019-01-02T19:38:26.051Z,1.50
2019-01-02T19:43:29.512Z,1.47
2019-01-02T19:48:32.960Z,1.37
2019-01-02T19:53:36.562Z,1.33
2019-01-02T19:58:40.043Z,1.32
2019-01-02T20:03:45.134Z,1.21
2019-01-02T20:08:48.595Z,1.03
2019-01-02T20:13:52.035Z,0.86
2019-01-02T20:18:55.540Z,0.85
2019-01-02T20:24:00.780Z,0.93
2019-01-02T20:29:04.237Z,0.81
2019-01-02T20:34:07.637Z,0.86
2019-01-02T20:39:11.084Z,0.81
2019-01-02T20:44:14.468Z,0.81
2019-01-02T20:49:17.906Z,0.82
2019-01-02T20:54:21.328Z,0.89
2019-01-02T20:59:24.755Z,0.96
2019-01-02T21:04:28.162Z,1.04
2019-01-02T21:09:31.591Z,1.15
2019-01-02T21:14:35.005Z,1.20
2019-01-02T21:19:38.435Z,1.30
2019-01-02T21:24:41.869Z,1.39
2019-01-02T21:29:45.339Z,1.48
2019-01-02T21:34:48.763Z,1.47
2019-01-02T21:39:52.190Z,1.51
2019-01-02T21:44:55.614Z,1.60
2019-01-02T21:49:59.154Z,1.67
2019-01-02T21:55:02.640Z,1.74
2019-01-02T22:00:09.614Z,1.77
2019-01-02T22:05:13.492Z,1.81
2019-01-02T22:10:16.948Z,1.82
2019-01-02T22:15:20.351Z,1.87
2019-01-02T22:20:23.772Z,1.96
2019-01-02T22:25:27.257Z,2.00
2019-01-02T22:30:32.243Z,2.01
2019-01-02T22:35:35.671Z,1.98
2019-01-02T22:40:39.119Z,2.03
2019-01-02T22:45:42.541Z,2.11
2019-01-02T22:50:46.019Z,2.04
2019-01-02T22:55:49.454Z,2.08
2019-01-02T23:01:04.393Z,2.11
2019-01-02T23:06:25.752Z,2.14
2019-01-02T23:11:39.830Z,2.07
2019-01-02T23:17:00.369Z,2.08
2019-01-02T23:22:05.457Z,2.16
2019-01-02T23:27:25.870Z,2.20
2019-01-02T23:32:33.960Z,2.13
2019-01-02T23:37:55.178Z,2.11
2019-01-02T23:43:18.139Z,2.02
2019-01-02T23:48:28.964Z,2.00
2019-01-02T23:53:34.019Z,2.04
2019-01-02T23:58:57.175Z,2.09
